This is the latest recevied weather packets stored in our database for station/object KK7ISX. If no packets are shown the sender has not sent any weather packets the latest 10 day(s).
| Time | Temp. | Humidity | Pressure | Rain* | Wind** | Luminosity | Snow |
|---|---|---|---|---|---|---|---|
| 1777830092 | 20.56° C | 42% | 1014.1 hPa | 0 mm | - | 690 W/m² | - |
| 1777829787 | 20° C | 44% | 1014.2 hPa | 0 mm | - | 685 W/m² | - |
| 1777829483 | 20.56° C | 43% | 1014.2 hPa | 0 mm | - | 674 W/m² | - |
| 1777829181 | 20° C | 45% | 1014.1 hPa | 0 mm | - | 657 W/m² | - |
| 1777828879 | 18.89° C | 45% | 1014.2 hPa | 0 mm | - | 650 W/m² | - |
| 1777828575 | 20° C | 43% | 1014.3 hPa | 0 mm | - | 637 W/m² | - |
| 1777828272 | 19.44° C | 42% | 1014.4 hPa | 0 mm | - | 620 W/m² | - |
| 1777827969 | 18.33° C | 47% | 1014.2 hPa | 0 mm | - | 610 W/m² | - |
| 1777827665 | 18.89° C | 46% | 1014.2 hPa | 0 mm | - | 604 W/m² | - |
| 1777827362 | 19.44° C | 44% | 1014.3 hPa | 0 mm | - | 586 W/m² | - |
| 1777827058 | 18.89° C | 44% | 1014.5 hPa | 0 mm | - | 577 W/m² | - |
| 1777826755 | 18.89° C | 44% | 1014.5 hPa | 0 mm | - | 556 W/m² | - |
| 1777826452 | 18.33° C | 47% | 1014.7 hPa | 0 mm | - | 546 W/m² | - |
| 1777826149 | 18.89° C | 48% | 1014.6 hPa | 0 mm | - | 533 W/m² | - |
| 1777825846 | 18.89° C | 46% | 1014.5 hPa | 0 mm | - | 518 W/m² | - |
| 1777825543 | 17.22° C | 50% | 1014.6 hPa | 0 mm | - | 502 W/m² | - |
| 1777825241 | 17.22° C | 51% | 1014.3 hPa | 0 mm | - | 477 W/m² | - |
| 1777824937 | 16.67° C | 51% | 1014.6 hPa | 0 mm | - | 475 W/m² | - |
| 1777824634 | 16.11° C | 52% | 1014.6 hPa | 0 mm | - | 457 W/m² | - |
| 1777824331 | 16.67° C | 54% | 1014.5 hPa | 0 mm | - | 443 W/m² | - |
| 1777824026 | 16.67° C | 53% | 1014.6 hPa | 0 mm | - | 422 W/m² | - |
| 1777823723 | 16.11° C | 54% | 1014.6 hPa | 0 mm | - | 406 W/m² | - |
| 1777823420 | 16.11° C | 54% | 1014.8 hPa | 0 mm | - | 390 W/m² | - |
| 1777823118 | 16.11° C | 55% | 1014.8 hPa | 0 mm | - | 373 W/m² | - |
| 1777822815 | 16.11° C | 54% | 1014.6 hPa | 0 mm | - | 356 W/m² | - |
* Rain latest hour (hover to see other rain measurements)
** Current wind speed in m/s (hover to see current wind gust speed)